Terminal Aerodrome Forecast
Issued by NWS

Home | Current Version | Previous Version | Text Only | Print | Product List | Glossary On
Versions: 1 2 3 4 5 6 7 8 9 10 11 12 13
071
FTUS45 KTFX 251128
TAFHLN
TAF
KHLN 251128Z 2512/2612 VRB06KT P6SM BKN050
      TEMPO 2512/2514 -SHRA SCT010 OVC030
     FM251700 VRB06KT P6SM BKN070
      TEMPO 2522/2602 -SHRA SCT030 OVC050=

USA.gov is the U.S. government's official web portal to all federal, state and local government web resources and services.